Time;durP1;ratioP1;P1;durP2;ratioP2;P2;SDS_P1;SDS_P2;PMS_P1;PMS_P2;Temp;Humidity;BMP_temperature;BMP_pressure;BME280_temperature;BME280_humidity;BME280_pressure;Samples;Min_cycle;Max_cycle;Signal;HPM_P1;HPM_P2
2024/01/10 00:01:35;;;;;;;10.82;3.38;;;5.00;99.90;;;;;;5155274;27;20023;-78
2024/01/10 00:04:01;;;;;;;16.50;3.30;;;5.00;99.90;;;;;;5148282;27;20022;-80
2024/01/10 00:06:26;;;;;;;21.10;2.75;;;5.00;99.90;;;;;;5135164;27;20111;-78
2024/01/10 00:08:52;;;;;;;16.50;2.65;;;5.00;99.90;;;;;;5155373;27;20072;-80
2024/01/10 00:11:18;;;;;;;12.90;2.58;;;4.90;99.90;;;;;;5155375;27;20364;-79
2024/01/10 00:13:44;;;;;;;17.30;3.22;;;5.00;99.90;;;;;;5155533;27;20030;-79
2024/01/10 00:16:13;;;;;;;13.05;2.38;;;4.90;99.90;;;;;;5155028;27;20070;-79
2024/01/10 00:18:40;;;;;;;7.05;2.15;;;4.90;99.90;;;;;;5136878;27;20459;-79
2024/01/10 00:21:06;;;;;;;10.32;2.70;;;4.90;99.90;;;;;;5155681;27;20371;-78
2024/01/10 00:23:32;;;;;;;11.35;2.22;;;4.90;99.90;;;;;;5136812;27;20109;-79
2024/01/10 00:25:57;;;;;;;10.95;2.70;;;4.90;99.90;;;;;;5136312;27;20110;-79
2024/01/10 00:28:24;;;;;;;11.07;2.75;;;4.90;99.90;;;;;;5155771;27;20025;-79
2024/01/10 00:30:50;;;;;;;12.75;2.65;;;4.90;99.90;;;;;;5154557;27;20030;-79
2024/01/10 00:33:16;;;;;;;16.55;2.72;;;4.80;99.90;;;;;;5154709;27;20067;-79
2024/01/10 00:35:42;;;;;;;6.45;1.90;;;4.90;99.90;;;;;;5154925;27;20046;-79
2024/01/10 00:38:07;;;;;;;18.08;2.60;;;4.80;99.90;;;;;;5154352;27;20022;-79
2024/01/10 00:40:33;;;;;;;9.63;2.33;;;4.80;99.90;;;;;;5154969;27;20083;-79
2024/01/10 00:42:59;;;;;;;10.75;2.50;;;4.80;99.90;;;;;;5153803;27;20019;-80
2024/01/10 00:45:24;;;;;;;7.45;2.00;;;4.80;99.90;;;;;;5153751;27;20015;-79
2024/01/10 00:47:50;;;;;;;10.18;2.63;;;4.80;99.90;;;;;;5154512;27;20046;-80
2024/01/10 00:50:16;;;;;;;7.22;2.28;;;4.80;99.90;;;;;;5154413;27;20049;-79
2024/01/10 00:52:43;;;;;;;10.90;2.25;;;4.80;99.90;;;;;;5155234;27;20015;-80
2024/01/10 00:55:09;;;;;;;11.00;2.40;;;4.80;99.90;;;;;;5154341;27;20098;-80
2024/01/10 00:57:35;;;;;;;14.38;3.53;;;4.80;99.90;;;;;;5135519;27;20121;-80
2024/01/10 01:00:00;;;;;;;9.85;2.47;;;4.80;99.90;;;;;;5153896;27;20018;-80
2024/01/10 01:02:27;;;;;;;12.57;2.50;;;4.80;99.90;;;;;;5155038;27;20560;-77
2024/01/10 01:04:52;;;;;;;9.57;2.53;;;4.80;99.90;;;;;;5153842;27;20125;-80
2024/01/10 01:07:18;;;;;;;11.27;2.17;;;4.80;99.90;;;;;;5154413;27;20493;-79
2024/01/10 01:09:44;;;;;;;9.15;2.05;;;4.90;99.90;;;;;;5154395;27;20034;-79
2024/01/10 01:12:10;;;;;;;9.85;2.35;;;4.90;99.90;;;;;;5135079;27;20023;-77
2024/01/10 01:14:35;;;;;;;11.48;3.03;;;4.80;99.90;;;;;;5135193;27;20030;-79
2024/01/10 01:17:01;;;;;;;10.25;2.65;;;4.80;99.90;;;;;;5154089;27;20026;-78
2024/01/10 01:19:27;;;;;;;11.73;2.70;;;4.90;99.90;;;;;;5136502;27;20083;-78
2024/01/10 01:21:52;;;;;;;6.90;1.65;;;4.90;99.90;;;;;;5154346;27;20019;-79
2024/01/10 01:24:18;;;;;;;7.63;2.15;;;4.80;99.90;;;;;;5154992;27;20015;-79
2024/01/10 01:26:44;;;;;;;9.38;2.22;;;4.80;99.90;;;;;;5136164;27;20022;-78
2024/01/10 01:29:09;;;;;;;12.23;1.92;;;4.80;99.90;;;;;;5154327;27;20023;-77
2024/01/10 01:31:35;;;;;;;11.10;2.10;;;4.80;99.90;;;;;;5135948;27;20026;-77
2024/01/10 01:34:01;;;;;;;9.98;1.85;;;4.70;99.90;;;;;;5154033;27;20026;-78
2024/01/10 01:36:27;;;;;;;2.97;0.85;;;4.80;99.90;;;;;;5136346;27;20029;-78
2024/01/10 01:38:52;;;;;;;10.27;1.90;;;4.70;99.90;;;;;;5153889;27;20017;-79
2024/01/10 01:41:19;;;;;;;7.93;2.03;;;4.70;99.90;;;;;;5154070;27;20026;-79
2024/01/10 01:43:45;;;;;;;10.32;1.88;;;4.70;99.90;;;;;;5136858;27;20046;-78
2024/01/10 01:46:11;;;;;;;8.05;2.08;;;4.70;99.90;;;;;;5154266;27;20098;-79
2024/01/10 01:48:38;;;;;;;6.15;2.58;;;4.80;99.90;;;;;;5154580;27;20019;-80
2024/01/10 01:51:07;;;;;;;5.43;1.80;;;4.80;99.90;;;;;;5154087;27;20483;-80
2024/01/10 01:53:35;;;;;;;5.43;1.60;;;4.70;99.90;;;;;;5154820;27;20409;-80
2024/01/10 01:56:12;;;;;;;6.03;1.65;;;4.70;99.90;;;;;;5153091;27;20443;-80
2024/01/10 01:58:38;;;;;;;5.70;1.98;;;4.70;99.90;;;;;;5136300;27;20077;-80
2024/01/10 02:01:07;;;;;;;7.40;1.85;;;4.80;99.90;;;;;;5153900;27;20432;-79
2024/01/10 02:03:33;;;;;;;8.73;2.72;;;4.80;99.90;;;;;;5154683;27;20014;-79
2024/01/10 02:06:03;;;;;;;11.80;2.08;;;4.80;99.90;;;;;;5153831;27;20095;-78
2024/01/10 02:08:32;;;;;;;10.38;2.13;;;4.80;99.90;;;;;;5154927;27;20018;-79
2024/01/10 02:10:59;;;;;;;9.90;2.15;;;4.80;99.90;;;;;;5154069;27;20424;-78
2024/01/10 02:13:24;;;;;;;8.40;1.77;;;4.80;99.90;;;;;;5153985;27;20388;-79
2024/01/10 02:15:51;;;;;;;7.22;1.80;;;4.90;99.90;;;;;;5153990;27;20113;-79
2024/01/10 02:18:17;;;;;;;8.10;2.17;;;4.90;99.90;;;;;;5153186;27;20396;-78
2024/01/10 02:20:47;;;;;;;8.57;1.48;;;4.80;99.90;;;;;;5153638;27;20037;-79
2024/01/10 02:23:13;;;;;;;7.63;2.20;;;4.80;99.90;;;;;;5135864;27;20027;-78
2024/01/10 02:25:40;;;;;;;7.00;1.80;;;4.80;99.90;;;;;;5153832;27;20027;-78
2024/01/10 02:28:07;;;;;;;8.18;1.88;;;4.70;99.90;;;;;;5134356;27;20026;-78
2024/01/10 02:30:33;;;;;;;7.65;1.85;;;4.70;99.90;;;;;;5153257;27;20041;-79
2024/01/10 02:32:59;;;;;;;7.13;1.98;;;4.70;99.90;;;;;;5133892;27;20019;-78
2024/01/10 02:35:24;;;;;;;5.82;1.92;;;4.60;99.90;;;;;;5153155;27;20014;-78
2024/01/10 02:37:51;;;;;;;7.07;1.90;;;4.60;99.90;;;;;;5153096;27;20021;-78
2024/01/10 02:40:17;;;;;;;5.75;1.95;;;4.70;99.90;;;;;;5152492;27;20541;-77
2024/01/10 02:42:43;;;;;;;7.82;1.73;;;4.60;99.90;;;;;;5152853;27;20037;-78
2024/01/10 02:45:09;;;;;;;6.50;1.80;;;4.60;99.90;;;;;;5152369;27;20018;-77
2024/01/10 02:47:36;;;;;;;5.72;1.40;;;4.70;99.90;;;;;;5152972;27;20034;-78
2024/01/10 02:50:03;;;;;;;8.77;1.80;;;4.70;99.90;;;;;;5133786;27;20069;-78
2024/01/10 02:52:29;;;;;;;14.07;2.30;;;4.70;99.90;;;;;;5153145;27;20029;-78
2024/01/10 02:54:54;;;;;;;7.72;1.60;;;4.70;99.90;;;;;;5152877;27;20015;-77
2024/01/10 02:57:20;;;;;;;7.63;1.80;;;4.60;99.90;;;;;;5151559;27;20484;-77
2024/01/10 02:59:46;;;;;;;4.38;1.60;;;4.60;99.90;;;;;;5151004;27;20023;-79
2024/01/10 03:02:11;;;;;;;7.65;1.63;;;4.70;99.90;;;;;;5131324;27;20024;-78
2024/01/10 03:04:37;;;;;;;7.05;1.48;;;4.60;99.90;;;;;;5131269;27;20023;-78
2024/01/10 03:07:03;;;;;;;3.50;1.70;;;4.70;99.90;;;;;;5111638;27;20015;-77
2024/01/10 03:09:29;;;;;;;8.60;1.63;;;4.70;99.90;;;;;;5131817;27;20127;-77
2024/01/10 03:11:55;;;;;;;3.90;1.40;;;4.60;99.90;;;;;;5131438;27;20103;-77
2024/01/10 03:14:20;;;;;;;5.63;1.38;;;4.70;99.90;;;;;;5131509;27;20015;-77
2024/01/10 03:16:46;;;;;;;9.60;1.50;;;4.60;99.90;;;;;;5131349;27;20031;-76
2024/01/10 03:19:12;;;;;;;8.52;1.60;;;4.60;99.90;;;;;;5130949;27;20437;-77
2024/01/10 03:21:37;;;;;;;7.30;1.85;;;4.60;99.90;;;;;;5131865;28;20019;-77
2024/01/10 03:24:04;;;;;;;4.60;1.20;;;4.60;99.90;;;;;;5131042;28;20187;-78
2024/01/10 03:26:32;;;;;;;8.15;2.00;;;4.70;99.90;;;;;;5131927;28;20313;-78
2024/01/10 03:28:58;;;;;;;6.65;1.42;;;4.70;99.90;;;;;;5131382;28;20023;-78
2024/01/10 03:31:24;;;;;;;6.75;1.80;;;4.70;99.90;;;;;;5131088;28;20031;-78
2024/01/10 03:33:50;;;;;;;8.60;1.40;;;4.70;99.90;;;;;;5131728;28;20038;-78
2024/01/10 03:36:17;;;;;;;5.43;1.45;;;4.70;99.90;;;;;;5130958;28;20294;-79
2024/01/10 03:38:44;;;;;;;7.93;1.38;;;4.70;99.90;;;;;;5131275;28;20024;-79
2024/01/10 03:41:19;;;;;;;5.47;1.65;;;4.70;99.90;;;;;;5130756;28;20034;-79
2024/01/10 03:43:46;;;;;;;8.57;1.67;;;4.80;99.90;;;;;;5131403;28;20102;-78
2024/01/10 03:46:13;;;;;;;4.70;1.45;;;4.70;99.90;;;;;;5130997;28;20047;-77
2024/01/10 03:48:47;;;;;;;3.83;1.30;;;4.70;99.90;;;;;;5131429;28;20054;-77
2024/01/10 03:51:13;;;;;;;6.57;1.50;;;4.70;99.90;;;;;;5130628;28;20069;-77
2024/01/10 03:53:39;;;;;;;8.57;1.98;;;4.70;99.90;;;;;;5131236;28;20016;-78
2024/01/10 03:56:05;;;;;;;4.90;1.42;;;4.80;99.90;;;;;;5130607;27;20123;-78
2024/01/10 03:58:31;;;;;;;5.35;1.00;;;4.80;99.90;;;;;;5131199;28;20018;-78
2024/01/10 04:00:57;;;;;;;9.82;1.50;;;4.80;99.90;;;;;;5131229;28;20023;-78
2024/01/10 04:03:22;;;;;;;5.07;1.35;;;4.80;99.90;;;;;;5112404;28;20501;-78
2024/01/10 04:05:48;;;;;;;5.85;1.23;;;4.80;99.90;;;;;;5130967;28;20030;-79
2024/01/10 04:08:15;;;;;;;4.63;1.33;;;4.80;99.90;;;;;;5130316;28;20472;-78
2024/01/10 04:10:41;;;;;;;1.85;1.00;;;4.80;99.90;;;;;;5131165;28;20023;-79
2024/01/10 04:13:06;;;;;;;4.95;1.30;;;4.80;99.90;;;;;;5131007;28;20413;-79
2024/01/10 04:15:32;;;;;;;6.18;1.63;;;4.90;99.90;;;;;;5131267;28;20019;-79
2024/01/10 04:17:58;;;;;;;6.10;1.40;;;4.80;99.90;;;;;;5131915;27;20442;-79
2024/01/10 04:20:24;;;;;;;6.32;1.10;;;4.80;99.90;;;;;;5134830;27;20102;-79
2024/01/10 04:22:49;;;;;;;5.60;1.42;;;4.90;99.90;;;;;;5135354;27;20023;-79
2024/01/10 04:25:15;;;;;;;6.50;1.23;;;4.80;99.90;;;;;;5134578;27;20448;-79
2024/01/10 04:27:41;;;;;;;9.93;1.70;;;4.90;99.90;;;;;;5135882;27;20102;-80
2024/01/10 04:30:08;;;;;;;6.93;1.30;;;4.90;99.90;;;;;;5134840;27;20034;-80
2024/01/10 04:32:34;;;;;;;9.95;1.00;;;4.90;99.90;;;;;;5135035;27;20023;-80
2024/01/10 04:35:00;;;;;;;12.73;2.08;;;4.90;99.90;;;;;;5135122;27;20446;-80
2024/01/10 04:37:26;;;;;;;6.47;0.93;;;4.90;99.90;;;;;;5134378;27;20031;-80
2024/01/10 04:39:52;;;;;;;5.35;1.40;;;5.00;99.90;;;;;;5135776;27;20034;-79
2024/01/10 04:42:18;;;;;;;5.28;1.15;;;5.00;99.90;;;;;;5116814;27;20068;-80
2024/01/10 04:44:43;;;;;;;9.93;1.77;;;5.00;99.90;;;;;;5134839;27;20124;-79
2024/01/10 04:47:09;;;;;;;5.05;1.25;;;4.90;99.90;;;;;;5134593;27;20492;-80
2024/01/10 04:49:35;;;;;;;9.77;1.60;;;5.00;99.90;;;;;;5135049;27;20444;-79
2024/01/10 04:52:01;;;;;;;9.35;1.75;;;4.90;99.90;;;;;;5135177;27;20033;-79
2024/01/10 04:54:27;;;;;;;7.88;1.10;;;4.90;99.90;;;;;;5134109;27;20318;-80
2024/01/10 04:56:52;;;;;;;7.50;1.23;;;5.00;99.90;;;;;;5135232;27;20459;-80
2024/01/10 04:59:18;;;;;;;6.65;1.58;;;5.00;99.90;;;;;;5115397;27;20035;-80
2024/01/10 05:01:44;;;;;;;8.18;1.88;;;5.00;99.90;;;;;;5134278;27;20030;-78
2024/01/10 05:04:09;;;;;;;12.90;1.50;;;5.00;99.90;;;;;;5133754;27;20023;-80
2024/01/10 05:06:35;;;;;;;9.27;1.75;;;5.00;99.90;;;;;;5133858;27;20030;-80
2024/01/10 05:09:01;;;;;;;7.93;1.38;;;5.00;99.90;;;;;;5115687;27;20026;-79
2024/01/10 05:11:26;;;;;;;6.93;1.65;;;5.00;99.90;;;;;;5133757;27;20099;-80
2024/01/10 05:13:52;;;;;;;4.30;1.10;;;5.00;99.90;;;;;;5134383;27;20049;-80
2024/01/10 05:16:18;;;;;;;6.45;1.63;;;5.00;99.90;;;;;;5133676;27;20027;-79
2024/01/10 05:18:44;;;;;;;6.38;1.17;;;4.90;99.90;;;;;;5136067;27;20023;-80
2024/01/10 05:21:10;;;;;;;8.80;1.10;;;5.00;99.90;;;;;;5133091;27;20027;-80
2024/01/10 05:23:36;;;;;;;8.07;1.40;;;4.90;99.90;;;;;;5115552;27;20019;-80
2024/01/10 05:26:02;;;;;;;5.05;1.10;;;5.00;99.90;;;;;;5133916;27;20045;-79
2024/01/10 05:28:28;;;;;;;4.63;1.10;;;4.90;99.90;;;;;;5133459;27;20015;-79
2024/01/10 05:30:54;;;;;;;5.00;1.08;;;5.00;99.90;;;;;;5132304;27;20034;-79
2024/01/10 05:33:20;;;;;;;3.83;0.77;;;5.00;99.90;;;;;;5133132;27;20035;-79
2024/01/10 05:35:46;;;;;;;3.88;1.20;;;5.00;99.90;;;;;;5134168;27;20041;-80
2024/01/10 05:38:11;;;;;;;4.07;1.10;;;5.00;99.90;;;;;;5133357;27;20090;-80
2024/01/10 05:40:37;;;;;;;13.68;1.77;;;5.00;99.90;;;;;;5115544;27;20061;-79
2024/01/10 05:43:03;;;;;;;5.93;1.25;;;5.00;99.90;;;;;;5115571;27;20054;-79
2024/01/10 05:45:29;;;;;;;4.30;1.40;;;5.10;99.90;;;;;;5132715;27;20015;-78
2024/01/10 05:47:55;;;;;;;7.03;1.33;;;5.10;99.90;;;;;;5114890;27;20120;-80
2024/01/10 05:50:21;;;;;;;5.53;0.95;;;5.10;99.90;;;;;;5132928;27;20027;-78
2024/01/10 05:52:50;;;;;;;6.10;1.25;;;5.10;99.90;;;;;;5133404;27;20406;-79
2024/01/10 05:55:16;;;;;;;12.70;1.23;;;5.10;99.90;;;;;;5114224;27;20106;-79
2024/01/10 05:57:42;;;;;;;9.23;1.40;;;5.20;99.90;;;;;;5133626;27;20146;-79
2024/01/10 06:00:09;;;;;;;7.82;1.17;;;5.20;99.90;;;;;;5133178;27;20023;-79
2024/01/10 06:02:38;;;;;;;7.43;0.93;;;5.30;99.90;;;;;;5133202;27;20177;-78
2024/01/10 06:05:06;;;;;;;4.20;0.90;;;5.30;99.90;;;;;;5133047;27;20027;-79
2024/01/10 06:07:32;;;;;;;4.93;1.27;;;5.30;99.90;;;;;;5132554;27;20027;-78
2024/01/10 06:09:57;;;;;;;4.55;1.20;;;5.30;99.90;;;;;;5132523;27;20031;-79
2024/01/10 06:12:23;;;;;;;3.58;0.85;;;5.30;99.90;;;;;;5132822;27;20085;-79
2024/01/10 06:14:49;;;;;;;5.45;1.00;;;5.30;99.90;;;;;;5114822;27;20015;-80
2024/01/10 06:17:15;;;;;;;3.00;0.80;;;5.30;99.90;;;;;;5132513;27;20068;-79
2024/01/10 06:19:41;;;;;;;2.47;1.00;;;5.30;99.90;;;;;;5132992;27;20031;-79
2024/01/10 06:22:07;;;;;;;7.85;0.73;;;5.30;99.90;;;;;;5132943;27;20022;-79
2024/01/10 06:24:33;;;;;;;4.35;0.70;;;5.30;99.90;;;;;;5113709;27;20023;-78
2024/01/10 06:26:59;;;;;;;3.15;0.80;;;5.40;99.90;;;;;;5132584;27;20029;-77
2024/01/10 06:29:25;;;;;;;4.40;1.05;;;5.40;99.90;;;;;;5132456;27;20473;-79
2024/01/10 06:31:50;;;;;;;7.63;1.10;;;5.40;99.90;;;;;;5114546;27;20079;-79
2024/01/10 06:34:16;;;;;;;3.40;0.80;;;5.40;99.90;;;;;;5132469;27;20150;-77
2024/01/10 06:36:42;;;;;;;8.63;0.93;;;5.40;99.90;;;;;;5132716;27;20360;-79
2024/01/10 06:39:12;;;;;;;6.45;0.80;;;5.40;99.90;;;;;;5133394;27;20072;-78
2024/01/10 06:41:38;;;;;;;3.15;0.85;;;5.30;99.90;;;;;;5132040;27;20022;-76
2024/01/10 06:44:04;;;;;;;3.97;1.08;;;5.30;99.90;;;;;;5132788;27;20023;-77
2024/01/10 06:46:31;;;;;;;5.72;1.05;;;5.30;99.90;;;;;;5132184;27;20471;-77
2024/01/10 06:48:57;;;;;;;7.75;1.00;;;5.40;99.90;;;;;;5132403;27;20015;-79
2024/01/10 06:51:23;;;;;;;3.53;1.10;;;5.50;99.90;;;;;;5132257;27;20025;-79
2024/01/10 06:53:49;;;;;;;3.80;0.60;;;5.50;99.90;;;;;;5114457;27;20034;-78
2024/01/10 06:56:14;;;;;;;3.95;0.70;;;5.50;99.90;;;;;;5132297;27;20035;-79
2024/01/10 06:58:40;;;;;;;3.28;1.00;;;5.50;99.90;;;;;;5132661;27;20027;-79
2024/01/10 07:01:13;;;;;;;6.03;0.85;;;5.50;99.90;;;;;;5132861;27;20031;-79
2024/01/10 07:03:39;;;;;;;;;;;5.60;99.90;;;;;;5132532;27;20099;-79
2024/01/10 07:06:05;;;;;;;5.85;1.02;;;5.60;99.90;;;;;;5132843;27;19969;-78
2024/01/10 07:08:30;;;;;;;6.03;1.13;;;5.60;99.90;;;;;;5132062;27;20019;-78
2024/01/10 07:10:56;;;;;;;2.88;0.80;;;5.60;99.90;;;;;;5132425;27;20102;-79
2024/01/10 07:13:23;;;;;;;1.83;0.57;;;5.60;99.90;;;;;;5131195;27;20027;-79
2024/01/10 07:15:50;;;;;;;6.55;1.20;;;5.70;99.90;;;;;;5113414;27;20046;-79
2024/01/10 07:18:17;;;;;;;7.38;1.10;;;5.60;99.90;;;;;;5112945;27;20356;-79
2024/01/10 07:20:42;;;;;;;3.92;0.95;;;5.70;99.90;;;;;;5131641;27;20380;-79
2024/01/10 07:23:08;;;;;;;3.28;0.70;;;5.70;99.90;;;;;;5131934;28;20015;-79
2024/01/10 07:25:34;;;;;;;3.95;1.05;;;5.70;99.90;;;;;;5131359;28;20031;-78
2024/01/10 07:28:00;;;;;;;5.15;0.75;;;5.70;99.90;;;;;;5113519;28;20068;-78
2024/01/10 07:30:26;;;;;;;5.07;0.80;;;5.70;99.90;;;;;;5113303;28;20054;-79
2024/01/10 07:32:52;;;;;;;5.40;0.80;;;5.70;99.90;;;;;;5132325;28;20033;-78
2024/01/10 07:35:18;;;;;;;4.05;0.80;;;5.70;99.90;;;;;;5132448;28;20020;-79
2024/01/10 07:37:44;;;;;;;4.13;0.95;;;5.80;99.90;;;;;;5112926;28;20134;-79
2024/01/10 07:40:10;;;;;;;7.10;1.83;;;5.70;99.90;;;;;;5131685;28;20030;-79
2024/01/10 07:42:37;;;;;;;4.97;1.10;;;5.70;99.90;;;;;;5130932;28;20108;-79
2024/01/10 07:45:07;;;;;;;2.05;0.65;;;5.80;99.90;;;;;;5131498;28;20020;-79
2024/01/10 07:47:37;;;;;;;4.60;0.90;;;5.80;99.90;;;;;;5112816;28;20026;-79
2024/01/10 07:50:14;;;;;;;6.75;1.02;;;5.80;99.90;;;;;;5131948;28;20109;-79
2024/01/10 07:52:40;;;;;;;4.53;0.82;;;5.80;99.90;;;;;;5131333;27;20015;-77
2024/01/10 07:55:06;;;;;;;3.08;0.70;;;5.80;99.90;;;;;;5136173;27;20034;-78
2024/01/10 07:57:36;;;;;;;7.20;1.15;;;5.80;99.90;;;;;;5135090;27;20039;-79
2024/01/10 08:00:04;;;;;;;5.85;0.85;;;5.80;99.90;;;;;;5135753;27;20042;-79
2024/01/10 08:02:33;;;;;;;5.95;0.90;;;5.80;99.90;;;;;;5135438;27;20055;-78
2024/01/10 08:05:05;;;;;;;5.85;0.98;;;5.80;99.90;;;;;;5135530;27;20047;-78
2024/01/10 08:07:36;;;;;;;3.00;1.02;;;5.80;99.90;;;;;;5134371;27;20343;-77
2024/01/10 08:10:08;;;;;;;3.55;0.57;;;5.80;99.90;;;;;;5135155;27;20118;-77
2024/01/10 08:12:34;;;;;;;4.70;0.80;;;5.80;99.90;;;;;;5134388;27;20117;-78
2024/01/10 08:15:00;;;;;;;4.90;0.80;;;5.90;99.90;;;;;;5135082;27;20098;-78
2024/01/10 08:17:26;;;;;;;6.30;1.02;;;5.90;99.90;;;;;;5134329;27;20027;-78
2024/01/10 08:19:54;;;;;;;3.80;0.60;;;5.90;99.90;;;;;;5134853;27;20030;-77
2024/01/10 08:22:20;;;;;;;8.02;1.20;;;5.90;99.90;;;;;;5134843;27;20023;-78
2024/01/10 08:24:46;;;;;;;5.10;0.80;;;5.90;99.90;;;;;;5134656;27;20088;-79
2024/01/10 08:27:12;;;;;;;3.75;0.90;;;5.90;99.90;;;;;;5134841;27;20023;-79
2024/01/10 08:29:38;;;;;;;4.10;0.70;;;6.00;99.90;;;;;;5131399;27;20027;-79
2024/01/10 08:32:04;;;;;;;6.85;1.10;;;6.00;99.90;;;;;;5123400;27;20030;-78
2024/01/10 08:34:30;;;;;;;3.08;0.90;;;5.90;99.90;;;;;;5106527;27;20027;-77
2024/01/10 08:36:56;;;;;;;6.28;1.15;;;6.00;99.90;;;;;;5116455;27;20129;-80
2024/01/10 08:39:24;;;;;;;4.03;1.08;;;6.00;99.90;;;;;;5134323;27;20019;-80
2024/01/10 08:41:50;;;;;;;3.33;0.80;;;6.00;99.90;;;;;;5116735;27;20026;-80
2024/01/10 08:44:15;;;;;;;7.07;1.08;;;6.00;99.90;;;;;;5135010;27;20015;-82
2024/01/10 08:46:41;;;;;;;3.92;0.95;;;6.00;99.90;;;;;;5134100;27;20159;-80
2024/01/10 08:49:07;;;;;;;5.82;1.45;;;5.90;99.90;;;;;;5115573;27;20364;-80
2024/01/10 08:51:32;;;;;;;4.10;0.70;;;6.00;99.90;;;;;;5136635;27;20022;-80
2024/01/10 08:53:59;;;;;;;4.55;0.80;;;6.00;99.90;;;;;;5145352;27;20113;-81
2024/01/10 08:56:25;;;;;;;3.85;0.82;;;6.00;99.90;;;;;;5144264;27;20038;-80
2024/01/10 08:58:52;;;;;;;5.03;1.00;;;6.00;99.90;;;;;;5102401;28;20360;-80
2024/01/10 09:01:18;;;;;;;0.63;0.55;;;6.00;99.90;;;;;;5114438;28;20020;-79
2024/01/10 09:03:44;;;;;;;3.53;1.02;;;6.00;99.90;;;;;;5113236;28;20020;-79
2024/01/10 09:06:10;;;;;;;1.02;0.38;;;6.10;99.90;;;;;;5112670;28;20020;-79
2024/01/10 09:08:36;;;;;;;3.40;0.93;;;6.10;99.90;;;;;;5112881;28;20470;-79
2024/01/10 09:11:02;;;;;;;2.60;0.70;;;6.10;99.90;;;;;;5098388;27;20038;-79
2024/01/10 09:13:28;;;;;;;6.63;1.00;;;6.10;99.90;;;;;;5123802;27;20042;-79
2024/01/10 09:15:54;;;;;;;2.45;0.90;;;6.10;99.90;;;;;;5102642;28;20047;-77
2024/01/10 09:18:19;;;;;;;3.58;0.70;;;6.20;99.90;;;;;;5113190;28;20024;-77
2024/01/10 09:20:45;;;;;;;2.67;0.63;;;6.10;99.90;;;;;;5126560;27;20029;-76
2024/01/10 09:23:11;;;;;;;7.72;1.15;;;6.10;99.90;;;;;;5146570;27;20137;-77
2024/01/10 09:25:37;;;;;;;2.63;0.70;;;6.10;99.90;;;;;;5125566;27;20025;-78
2024/01/10 09:28:04;;;;;;;3.92;0.90;;;6.20;99.90;;;;;;5143534;27;20382;-77
2024/01/10 09:30:30;;;;;;;3.17;0.63;;;6.20;99.90;;;;;;5155393;27;20110;-78
2024/01/10 09:32:56;;;;;;;3.25;0.77;;;6.20;99.90;;;;;;5135665;27;20117;-78
2024/01/10 09:35:22;;;;;;;2.75;0.80;;;6.20;99.90;;;;;;5154094;27;20110;-77
2024/01/10 09:37:49;;;;;;;3.72;0.80;;;6.20;99.90;;;;;;5135089;27;20019;-78
2024/01/10 09:40:16;;;;;;;2.55;0.90;;;6.30;99.90;;;;;;5154022;27;20117;-77
2024/01/10 09:42:44;;;;;;;5.32;1.15;;;6.30;99.90;;;;;;5153733;27;20444;-78
2024/01/10 09:45:12;;;;;;;2.17;0.70;;;6.30;99.90;;;;;;5154055;27;20054;-78
2024/01/10 09:47:42;;;;;;;4.72;0.93;;;6.40;99.90;;;;;;5153360;27;20345;-77
2024/01/10 09:50:10;;;;;;;3.72;0.80;;;6.40;99.90;;;;;;5135093;27;20042;-77
2024/01/10 09:52:46;;;;;;;7.60;0.95;;;6.40;99.90;;;;;;5153533;27;20027;-79
2024/01/10 09:55:13;;;;;;;3.72;0.60;;;6.40;99.90;;;;;;5153962;27;20030;-77
2024/01/10 09:57:40;;;;;;;3.85;1.05;;;6.40;99.90;;;;;;5154052;27;20118;-78
2024/01/10 10:00:10;;;;;;;3.60;0.77;;;6.50;99.90;;;;;;5153778;27;20022;-77
2024/01/10 10:02:39;;;;;;;4.47;0.98;;;6.40;99.90;;;;;;5153847;27;20086;-79
2024/01/10 10:05:12;;;;;;;3.70;0.88;;;6.50;99.90;;;;;;5153844;27;20019;-79
2024/01/10 10:07:48;;;;;;;4.32;0.75;;;6.50;99.90;;;;;;5153290;27;20102;-79
2024/01/10 10:10:15;;;;;;;6.85;1.02;;;6.50;99.90;;;;;;5154001;27;20366;-78
2024/01/10 10:12:48;;;;;;;2.97;0.63;;;6.60;99.90;;;;;;5153431;27;20046;-78
2024/01/10 10:15:15;;;;;;;1.75;0.73;;;6.50;99.90;;;;;;5153560;27;20023;-78
2024/01/10 10:17:47;;;;;;;5.68;1.02;;;6.60;99.90;;;;;;5152855;27;20022;-78
2024/01/10 10:20:27;;;;;;;3.15;0.70;;;6.60;99.90;;;;;;5134881;27;20122;-78
2024/01/10 10:23:07;;;;;;;3.05;0.70;;;6.60;99.90;;;;;;5143349;27;20073;-78
2024/01/10 10:25:42;;;;;;;3.65;1.00;;;6.60;99.90;;;;;;5104624;27;20019;-79
2024/01/10 10:28:07;;;;;;;6.85;1.02;;;6.60;99.90;;;;;;5118120;27;20049;-78
2024/01/10 10:30:34;;;;;;;4.25;0.60;;;6.70;99.90;;;;;;5111487;28;20020;-78
2024/01/10 10:33:01;;;;;;;3.67;0.70;;;6.70;99.90;;;;;;5111869;28;20107;-79
2024/01/10 10:35:26;;;;;;;1.63;0.60;;;6.80;99.90;;;;;;5112240;28;20039;-77
2024/01/10 10:37:54;;;;;;;2.35;0.50;;;6.70;99.90;;;;;;5097851;27;20455;-77
2024/01/10 10:40:20;;;;;;;4.07;0.73;;;6.70;99.90;;;;;;5120511;27;20028;-77
2024/01/10 10:42:48;;;;;;;4.07;0.68;;;6.70;99.90;;;;;;5096456;27;20015;-78
2024/01/10 10:45:17;;;;;;;4.97;0.60;;;6.80;99.90;;;;;;5132347;27;20015;-79
2024/01/10 10:47:46;;;;;;;2.17;0.57;;;6.80;99.90;;;;;;5113238;27;20114;-79
2024/01/10 10:50:22;;;;;;;6.78;0.90;;;6.70;99.90;;;;;;5132508;27;20023;-79
2024/01/10 10:52:50;;;;;;;3.28;0.85;;;6.60;99.90;;;;;;5132608;27;20173;-79
2024/01/10 10:55:17;;;;;;;2.63;0.70;;;6.70;99.90;;;;;;5114394;27;20430;-79
2024/01/10 10:57:47;;;;;;;1.13;0.50;;;6.60;99.90;;;;;;5132551;27;20047;-80
2024/01/10 11:00:17;;;;;;;4.53;0.88;;;6.60;99.90;;;;;;5132666;27;20432;-79
2024/01/10 11:02:44;;;;;;;2.50;0.70;;;6.60;99.90;;;;;;5132169;27;20011;-79
2024/01/10 11:05:10;;;;;;;2.67;0.70;;;6.60;99.90;;;;;;5133033;27;20088;-79
2024/01/10 11:07:42;;;;;;;1.55;0.57;;;6.60;99.90;;;;;;5132236;27;20439;-79
2024/01/10 11:10:37;;;;;;;2.83;0.60;;;6.60;99.90;;;;;;5114638;27;20322;-79
2024/01/10 11:13:20;;;;;;;2.50;0.50;;;6.60;99.90;;;;;;5132295;27;20304;-80
2024/01/10 11:16:12;;;;;;;3.30;0.85;;;6.60;99.90;;;;;;5130821;27;20023;-80
2024/01/10 11:18:53;;;;;;;1.10;0.60;;;6.50;99.90;;;;;;5131134;27;20027;-80
2024/01/10 11:22:04;;;;;;;3.75;0.70;;;6.50;99.90;;;;;;5112905;27;20023;-79
2024/01/10 11:24:31;;;;;;;1.58;0.45;;;6.60;99.90;;;;;;5131114;28;20072;-79
2024/01/10 11:27:14;;;;;;;5.15;0.68;;;6.50;99.90;;;;;;5130590;27;20038;-80
2024/01/10 11:29:40;;;;;;;1.83;0.52;;;6.50;99.90;;;;;;5133037;28;20440;-79
2024/01/10 11:32:16;;;;;;;4.05;0.70;;;6.50;99.90;;;;;;5131147;28;20444;-79
2024/01/10 11:35:00;;;;;;;1.80;0.60;;;6.50;99.90;;;;;;5130800;28;20025;-79
2024/01/10 11:37:46;;;;;;;3.17;0.60;;;6.50;99.90;;;;;;5131370;28;20025;-77
2024/01/10 11:40:15;;;;;;;2.97;0.73;;;6.70;99.90;;;;;;5131408;28;20113;-78
2024/01/10 11:42:43;;;;;;;2.85;0.57;;;6.80;99.90;;;;;;5112901;28;20050;-80
2024/01/10 11:45:09;;;;;;;1.98;0.50;;;6.90;99.90;;;;;;5112857;28;20316;-79
2024/01/10 11:47:38;;;;;;;3.67;0.43;;;6.90;99.90;;;;;;5131784;28;20023;-80
2024/01/10 11:50:07;;;;;;;1.83;0.47;;;6.80;99.90;;;;;;5131852;28;20039;-79
2024/01/10 11:52:34;;;;;;;3.10;0.68;;;6.80;99.90;;;;;;5131524;28;20372;-79
2024/01/10 11:55:00;;;;;;;1.15;0.60;;;6.80;99.90;;;;;;5132247;28;20028;-79
2024/01/10 11:57:27;;;;;;;2.75;0.60;;;6.70;99.90;;;;;;5112387;28;20062;-79
2024/01/10 11:59:55;;;;;;;2.95;0.70;;;6.70;99.90;;;;;;5129904;28;20489;-78
2024/01/10 12:02:23;;;;;;;2.50;1.55;;;6.70;99.90;;;;;;5112381;28;20023;-79
2024/01/10 12:04:49;;;;;;;1.73;0.68;;;6.70;99.90;;;;;;5130552;28;20019;-79
2024/01/10 12:07:17;;;;;;;3.97;1.05;;;6.80;99.90;;;;;;5112295;28;20457;-78
2024/01/10 12:09:44;;;;;;;2.78;0.68;;;6.80;99.90;;;;;;5130279;28;20031;-78
2024/01/10 12:12:12;;;;;;;1.60;0.50;;;6.80;99.90;;;;;;5131704;28;20373;-79
2024/01/10 12:14:38;;;;;;;4.13;0.80;;;6.80;99.90;;;;;;5130750;28;20027;-79
2024/01/10 12:17:07;;;;;;;4.50;1.33;;;6.90;99.90;;;;;;5131147;28;20027;-79
2024/01/10 12:19:34;;;;;;;2.08;0.80;;;6.90;99.90;;;;;;5130897;28;20060;-78
2024/01/10 12:22:00;;;;;;;3.45;0.90;;;7.00;99.90;;;;;;5130698;28;20015;-78
2024/01/10 12:24:31;;;;;;;2.85;0.70;;;7.00;99.90;;;;;;5113822;28;20084;-78
2024/01/10 12:26:57;;;;;;;3.10;0.63;;;7.00;99.90;;;;;;5130778;28;20026;-78
2024/01/10 12:29:25;;;;;;;2.70;0.88;;;7.00;99.90;;;;;;5130970;28;20019;-78
2024/01/10 12:31:51;;;;;;;4.93;0.70;;;7.00;99.90;;;;;;5112144;28;20034;-78
2024/01/10 12:34:16;;;;;;;3.33;0.82;;;7.00;99.90;;;;;;5131815;28;20545;-78
2024/01/10 12:36:47;;;;;;;3.25;1.13;;;7.00;99.90;;;;;;5130909;28;20027;-78
2024/01/10 12:39:13;;;;;;;5.50;0.80;;;7.10;99.90;;;;;;5132027;27;20392;-79
2024/01/10 12:41:40;;;;;;;3.17;0.90;;;7.10;99.90;;;;;;5135797;27;20035;-77
2024/01/10 12:44:06;;;;;;;2.22;0.60;;;7.20;99.90;;;;;;5134701;27;20074;-79
2024/01/10 12:46:32;;;;;;;3.13;0.60;;;7.20;99.90;;;;;;5134367;27;20107;-79
2024/01/10 12:49:06;;;;;;;5.82;1.05;;;7.20;99.90;;;;;;5134197;27;20041;-79
2024/01/10 12:51:36;;;;;;;4.68;0.68;;;7.20;99.90;;;;;;5134380;27;20121;-79
2024/01/10 12:54:03;;;;;;;5.40;0.70;;;7.20;99.90;;;;;;5134655;27;20460;-80
2024/01/10 12:56:30;;;;;;;3.85;0.82;;;7.20;99.90;;;;;;5134352;27;20070;-79